sensor_id;sensor_type;location;lat;lon;timestamp;temperature;humidity
11304;DHT22;5707;49.588;12.148;2023-04-12T00:01:05;-0.60;99.90
11304;DHT22;5707;49.588;12.148;2023-04-12T00:03:31;-0.60;99.90
11304;DHT22;5707;49.588;12.148;2023-04-12T00:05:59;-0.60;99.90
11304;DHT22;5707;49.588;12.148;2023-04-12T00:08:28;-0.70;99.90
11304;DHT22;5707;49.588;12.148;2023-04-12T00:10:57;-0.90;99.90
11304;DHT22;5707;49.588;12.148;2023-04-12T00:13:23;-0.90;99.90
11304;DHT22;5707;49.588;12.148;2023-04-12T00:15:49;-0.90;99.90
11304;DHT22;5707;49.588;12.148;2023-04-12T00:18:14;-1.00;99.90
11304;DHT22;5707;49.588;12.148;2023-04-12T00:20:40;-0.90;99.90
11304;DHT22;5707;49.588;12.148;2023-04-12T00:23:05;-0.80;99.90
11304;DHT22;5707;49.588;12.148;2023-04-12T00:25:31;-0.60;99.90
11304;DHT22;5707;49.588;12.148;2023-04-12T00:27:57;-0.40;99.90
11304;DHT22;5707;49.588;12.148;2023-04-12T00:30:22;-0.20;99.90
11304;DHT22;5707;49.588;12.148;2023-04-12T00:32:48;-0.20;99.90
11304;DHT22;5707;49.588;12.148;2023-04-12T00:35:14;-0.20;99.90
11304;DHT22;5707;49.588;12.148;2023-04-12T00:37:40;-0.10;99.90
11304;DHT22;5707;49.588;12.148;2023-04-12T00:40:07;-0.30;99.90
11304;DHT22;5707;49.588;12.148;2023-04-12T00:42:34;-0.40;99.90
11304;DHT22;5707;49.588;12.148;2023-04-12T00:45:00;-0.60;99.90
11304;DHT22;5707;49.588;12.148;2023-04-12T00:47:26;-0.80;99.90
11304;DHT22;5707;49.588;12.148;2023-04-12T00:49:54;-0.90;99.90
11304;DHT22;5707;49.588;12.148;2023-04-12T00:52:20;-1.00;99.90
11304;DHT22;5707;49.588;12.148;2023-04-12T00:54:46;-1.00;99.90
11304;DHT22;5707;49.588;12.148;2023-04-12T00:57:12;-0.70;99.90
11304;DHT22;5707;49.588;12.148;2023-04-12T00:59:38;-0.60;99.90
11304;DHT22;5707;49.588;12.148;2023-04-12T01:02:04;-0.60;99.90
11304;DHT22;5707;49.588;12.148;2023-04-12T01:04:30;-0.70;99.90
11304;DHT22;5707;49.588;12.148;2023-04-12T01:07:13;-0.80;99.90
11304;DHT22;5707;49.588;12.148;2023-04-12T01:09:49;-0.80;99.90
11304;DHT22;5707;49.588;12.148;2023-04-12T01:12:35;-0.90;99.90
11304;DHT22;5707;49.588;12.148;2023-04-12T01:15:08;-0.90;99.90
11304;DHT22;5707;49.588;12.148;2023-04-12T01:17:42;-1.00;99.90
11304;DHT22;5707;49.588;12.148;2023-04-12T01:20:13;-1.00;99.90
11304;DHT22;5707;49.588;12.148;2023-04-12T01:25:38;-1.00;99.90
11304;DHT22;5707;49.588;12.148;2023-04-12T01:28:06;-1.10;99.90
11304;DHT22;5707;49.588;12.148;2023-04-12T01:30:33;-1.10;99.90
11304;DHT22;5707;49.588;12.148;2023-04-12T01:33:00;-1.10;99.90
11304;DHT22;5707;49.588;12.148;2023-04-12T01:35:29;-1.10;99.90
11304;DHT22;5707;49.588;12.148;2023-04-12T01:37:56;-1.10;99.90
11304;DHT22;5707;49.588;12.148;2023-04-12T01:40:24;-1.10;99.90
11304;DHT22;5707;49.588;12.148;2023-04-12T01:43:02;-1.10;99.90
11304;DHT22;5707;49.588;12.148;2023-04-12T01:45:28;-1.10;99.90
11304;DHT22;5707;49.588;12.148;2023-04-12T01:47:53;-1.00;99.90
11304;DHT22;5707;49.588;12.148;2023-04-12T01:50:25;-1.00;99.90
11304;DHT22;5707;49.588;12.148;2023-04-12T01:53:02;-1.00;99.90
11304;DHT22;5707;49.588;12.148;2023-04-12T01:55:35;-0.90;99.90
11304;DHT22;5707;49.588;12.148;2023-04-12T01:58:02;-0.90;99.90
11304;DHT22;5707;49.588;12.148;2023-04-12T02:00:30;-0.90;99.90
11304;DHT22;5707;49.588;12.148;2023-04-12T02:02:56;-0.80;99.90
11304;DHT22;5707;49.588;12.148;2023-04-12T02:05:22;-0.70;99.90
11304;DHT22;5707;49.588;12.148;2023-04-12T02:07:49;-0.60;99.90
11304;DHT22;5707;49.588;12.148;2023-04-12T02:10:14;-0.60;99.90
11304;DHT22;5707;49.588;12.148;2023-04-12T02:12:41;-0.60;99.90
11304;DHT22;5707;49.588;12.148;2023-04-12T02:15:07;-0.50;99.90
11304;DHT22;5707;49.588;12.148;2023-04-12T02:17:33;-0.50;99.90
11304;DHT22;5707;49.588;12.148;2023-04-12T02:20:02;-0.50;99.90
11304;DHT22;5707;49.588;12.148;2023-04-12T02:22:31;-0.50;99.90
11304;DHT22;5707;49.588;12.148;2023-04-12T02:24:57;-0.50;99.90
11304;DHT22;5707;49.588;12.148;2023-04-12T02:27:24;-0.40;99.90
11304;DHT22;5707;49.588;12.148;2023-04-12T02:29:50;-0.50;99.90
11304;DHT22;5707;49.588;12.148;2023-04-12T02:32:15;-0.50;99.90
11304;DHT22;5707;49.588;12.148;2023-04-12T02:34:41;-0.50;99.90
11304;DHT22;5707;49.588;12.148;2023-04-12T02:37:07;-0.60;99.90
11304;DHT22;5707;49.588;12.148;2023-04-12T02:39:33;-0.60;99.90
11304;DHT22;5707;49.588;12.148;2023-04-12T02:42:00;-0.60;99.90
11304;DHT22;5707;49.588;12.148;2023-04-12T02:44:28;-0.60;99.90
11304;DHT22;5707;49.588;12.148;2023-04-12T02:46:55;-0.60;99.90
11304;DHT22;5707;49.588;12.148;2023-04-12T02:49:21;-0.60;99.90
11304;DHT22;5707;49.588;12.148;2023-04-12T02:51:46;-0.60;99.90
11304;DHT22;5707;49.588;12.148;2023-04-12T02:54:12;-0.50;99.90
11304;DHT22;5707;49.588;12.148;2023-04-12T02:56:37;-0.30;99.90
11304;DHT22;5707;49.588;12.148;2023-04-12T02:59:03;-0.20;99.90
11304;DHT22;5707;49.588;12.148;2023-04-12T03:01:29;-0.10;99.90
11304;DHT22;5707;49.588;12.148;2023-04-12T03:03:55;-0.10;99.90
11304;DHT22;5707;49.588;12.148;2023-04-12T03:06:20;-0.10;99.90
11304;DHT22;5707;49.588;12.148;2023-04-12T03:08:46;0.00;99.90
11304;DHT22;5707;49.588;12.148;2023-04-12T03:11:12;0.00;99.90
11304;DHT22;5707;49.588;12.148;2023-04-12T03:13:37;0.10;99.90
11304;DHT22;5707;49.588;12.148;2023-04-12T03:16:19;0.20;99.90
11304;DHT22;5707;49.588;12.148;2023-04-12T03:18:46;0.20;99.90
11304;DHT22;5707;49.588;12.148;2023-04-12T03:21:11;0.30;99.90
11304;DHT22;5707;49.588;12.148;2023-04-12T03:23:37;0.30;99.90
11304;DHT22;5707;49.588;12.148;2023-04-12T03:26:02;0.30;99.90
11304;DHT22;5707;49.588;12.148;2023-04-12T03:28:28;0.20;99.90
11304;DHT22;5707;49.588;12.148;2023-04-12T03:30:53;0.30;99.90
11304;DHT22;5707;49.588;12.148;2023-04-12T03:33:19;0.30;99.90
11304;DHT22;5707;49.588;12.148;2023-04-12T03:35:45;0.30;99.90
11304;DHT22;5707;49.588;12.148;2023-04-12T03:38:10;0.30;99.90
11304;DHT22;5707;49.588;12.148;2023-04-12T03:40:36;0.30;99.90
11304;DHT22;5707;49.588;12.148;2023-04-12T03:43:01;0.30;99.90
11304;DHT22;5707;49.588;12.148;2023-04-12T03:45:27;0.30;99.90
11304;DHT22;5707;49.588;12.148;2023-04-12T03:47:52;0.40;99.90
11304;DHT22;5707;49.588;12.148;2023-04-12T03:50:18;0.40;99.90
11304;DHT22;5707;49.588;12.148;2023-04-12T03:52:44;0.40;99.90
11304;DHT22;5707;49.588;12.148;2023-04-12T03:55:10;0.40;99.90
11304;DHT22;5707;49.588;12.148;2023-04-12T03:57:38;0.40;99.90
11304;DHT22;5707;49.588;12.148;2023-04-12T04:00:04;0.40;99.90
11304;DHT22;5707;49.588;12.148;2023-04-12T04:02:30;0.40;99.90
11304;DHT22;5707;49.588;12.148;2023-04-12T04:04:56;0.40;99.90
11304;DHT22;5707;49.588;12.148;2023-04-12T04:07:21;0.40;99.90
11304;DHT22;5707;49.588;12.148;2023-04-12T04:09:47;0.40;99.90
11304;DHT22;5707;49.588;12.148;2023-04-12T04:12:14;0.40;99.90
11304;DHT22;5707;49.588;12.148;2023-04-12T04:14:39;0.50;99.90
11304;DHT22;5707;49.588;12.148;2023-04-12T04:17:05;0.50;99.90
11304;DHT22;5707;49.588;12.148;2023-04-12T04:19:31;0.60;99.90
11304;DHT22;5707;49.588;12.148;2023-04-12T04:21:56;0.70;99.90
11304;DHT22;5707;49.588;12.148;2023-04-12T04:24:23;0.70;99.90
11304;DHT22;5707;49.588;12.148;2023-04-12T04:26:49;0.80;99.90
11304;DHT22;5707;49.588;12.148;2023-04-12T04:29:18;0.90;99.90
11304;DHT22;5707;49.588;12.148;2023-04-12T04:31:44;1.10;99.90
11304;DHT22;5707;49.588;12.148;2023-04-12T04:34:10;1.20;99.90
11304;DHT22;5707;49.588;12.148;2023-04-12T04:36:37;1.30;99.90
11304;DHT22;5707;49.588;12.148;2023-04-12T04:39:03;1.40;99.90
11304;DHT22;5707;49.588;12.148;2023-04-12T04:41:32;1.60;99.90
11304;DHT22;5707;49.588;12.148;2023-04-12T04:44:07;1.60;99.90
11304;DHT22;5707;49.588;12.148;2023-04-12T04:46:36;1.70;99.90
11304;DHT22;5707;49.588;12.148;2023-04-12T04:49:03;1.70;99.90
11304;DHT22;5707;49.588;12.148;2023-04-12T04:51:28;1.70;99.90
11304;DHT22;5707;49.588;12.148;2023-04-12T04:53:54;1.70;99.90
11304;DHT22;5707;49.588;12.148;2023-04-12T04:56:20;1.80;99.90
11304;DHT22;5707;49.588;12.148;2023-04-12T04:58:48;1.80;99.90
11304;DHT22;5707;49.588;12.148;2023-04-12T05:01:14;1.80;99.90
11304;DHT22;5707;49.588;12.148;2023-04-12T05:03:41;1.90;99.90
11304;DHT22;5707;49.588;12.148;2023-04-12T05:06:12;2.10;99.90
11304;DHT22;5707;49.588;12.148;2023-04-12T05:08:37;2.30;99.90
11304;DHT22;5707;49.588;12.148;2023-04-12T05:11:03;2.40;99.90
11304;DHT22;5707;49.588;12.148;2023-04-12T05:13:29;2.60;99.90
11304;DHT22;5707;49.588;12.148;2023-04-12T05:15:54;2.60;99.90
11304;DHT22;5707;49.588;12.148;2023-04-12T05:18:20;2.70;99.90
11304;DHT22;5707;49.588;12.148;2023-04-12T05:20:45;2.70;99.90
11304;DHT22;5707;49.588;12.148;2023-04-12T05:23:13;2.80;99.90
11304;DHT22;5707;49.588;12.148;2023-04-12T05:25:46;2.80;99.90
11304;DHT22;5707;49.588;12.148;2023-04-12T05:28:13;2.90;99.90
11304;DHT22;5707;49.588;12.148;2023-04-12T05:30:39;3.00;99.90
11304;DHT22;5707;49.588;12.148;2023-04-12T05:33:05;3.00;99.90
11304;DHT22;5707;49.588;12.148;2023-04-12T05:35:31;3.10;99.90
11304;DHT22;5707;49.588;12.148;2023-04-12T05:37:56;3.10;99.90
11304;DHT22;5707;49.588;12.148;2023-04-12T05:40:22;3.20;99.90
11304;DHT22;5707;49.588;12.148;2023-04-12T05:42:47;3.20;99.90
11304;DHT22;5707;49.588;12.148;2023-04-12T05:45:13;3.20;99.90
11304;DHT22;5707;49.588;12.148;2023-04-12T05:47:38;3.30;99.90
11304;DHT22;5707;49.588;12.148;2023-04-12T05:50:04;3.30;99.90
11304;DHT22;5707;49.588;12.148;2023-04-12T05:52:31;3.40;99.90
11304;DHT22;5707;49.588;12.148;2023-04-12T05:54:56;3.40;99.90
11304;DHT22;5707;49.588;12.148;2023-04-12T05:57:22;3.50;99.90
11304;DHT22;5707;49.588;12.148;2023-04-12T05:59:47;3.60;99.90
11304;DHT22;5707;49.588;12.148;2023-04-12T06:02:13;3.80;99.90
11304;DHT22;5707;49.588;12.148;2023-04-12T06:04:38;3.80;99.90
11304;DHT22;5707;49.588;12.148;2023-04-12T06:07:05;3.90;99.90
11304;DHT22;5707;49.588;12.148;2023-04-12T06:09:30;4.00;99.90
11304;DHT22;5707;49.588;12.148;2023-04-12T06:11:56;4.00;99.90
11304;DHT22;5707;49.588;12.148;2023-04-12T06:14:22;4.10;99.90
11304;DHT22;5707;49.588;12.148;2023-04-12T06:16:47;4.30;99.90
11304;DHT22;5707;49.588;12.148;2023-04-12T06:19:13;4.50;99.90
11304;DHT22;5707;49.588;12.148;2023-04-12T06:21:39;4.50;99.90
11304;DHT22;5707;49.588;12.148;2023-04-12T06:24:05;4.60;99.90
11304;DHT22;5707;49.588;12.148;2023-04-12T06:26:31;4.70;99.90
11304;DHT22;5707;49.588;12.148;2023-04-12T06:28:56;4.90;99.90
11304;DHT22;5707;49.588;12.148;2023-04-12T06:31:22;5.00;99.90
11304;DHT22;5707;49.588;12.148;2023-04-12T06:33:48;5.30;99.90
11304;DHT22;5707;49.588;12.148;2023-04-12T06:36:14;5.60;99.90
11304;DHT22;5707;49.588;12.148;2023-04-12T06:38:41;5.90;99.90
11304;DHT22;5707;49.588;12.148;2023-04-12T06:41:06;6.10;99.90
11304;DHT22;5707;49.588;12.148;2023-04-12T06:43:32;6.30;99.90
11304;DHT22;5707;49.588;12.148;2023-04-12T06:45:58;6.40;99.90
11304;DHT22;5707;49.588;12.148;2023-04-12T06:48:24;6.50;99.90
11304;DHT22;5707;49.588;12.148;2023-04-12T06:50:49;6.80;99.90
11304;DHT22;5707;49.588;12.148;2023-04-12T06:53:15;6.90;99.90
11304;DHT22;5707;49.588;12.148;2023-04-12T06:55:41;7.20;99.90
11304;DHT22;5707;49.588;12.148;2023-04-12T06:58:06;7.30;99.90
11304;DHT22;5707;49.588;12.148;2023-04-12T07:00:32;7.40;99.90
11304;DHT22;5707;49.588;12.148;2023-04-12T07:02:57;7.30;99.90
11304;DHT22;5707;49.588;12.148;2023-04-12T07:05:23;7.30;99.90
11304;DHT22;5707;49.588;12.148;2023-04-12T07:07:48;7.50;99.90
11304;DHT22;5707;49.588;12.148;2023-04-12T07:10:14;7.60;99.90
11304;DHT22;5707;49.588;12.148;2023-04-12T07:12:40;7.70;99.90
11304;DHT22;5707;49.588;12.148;2023-04-12T07:15:07;7.80;99.90
11304;DHT22;5707;49.588;12.148;2023-04-12T07:17:32;7.90;99.90
11304;DHT22;5707;49.588;12.148;2023-04-12T07:19:58;8.00;99.90
11304;DHT22;5707;49.588;12.148;2023-04-12T07:22:23;7.90;99.90
11304;DHT22;5707;49.588;12.148;2023-04-12T07:24:49;7.90;99.90
11304;DHT22;5707;49.588;12.148;2023-04-12T07:27:15;8.00;99.90
11304;DHT22;5707;49.588;12.148;2023-04-12T07:29:41;8.00;99.90
11304;DHT22;5707;49.588;12.148;2023-04-12T07:32:09;7.90;99.90
11304;DHT22;5707;49.588;12.148;2023-04-12T07:34:35;7.90;99.90
11304;DHT22;5707;49.588;12.148;2023-04-12T07:37:01;7.90;99.90
11304;DHT22;5707;49.588;12.148;2023-04-12T07:39:26;8.00;99.90
11304;DHT22;5707;49.588;12.148;2023-04-12T07:41:54;8.10;99.90
11304;DHT22;5707;49.588;12.148;2023-04-12T07:44:20;8.10;99.90
11304;DHT22;5707;49.588;12.148;2023-04-12T07:46:45;8.30;99.90
11304;DHT22;5707;49.588;12.148;2023-04-12T07:49:11;8.30;99.90
11304;DHT22;5707;49.588;12.148;2023-04-12T07:51:37;8.40;99.90
11304;DHT22;5707;49.588;12.148;2023-04-12T07:54:03;8.40;99.90
11304;DHT22;5707;49.588;12.148;2023-04-12T07:56:29;8.40;99.90
11304;DHT22;5707;49.588;12.148;2023-04-12T07:58:54;8.40;99.90
11304;DHT22;5707;49.588;12.148;2023-04-12T08:01:20;8.50;99.90
11304;DHT22;5707;49.588;12.148;2023-04-12T08:03:46;8.50;99.90
11304;DHT22;5707;49.588;12.148;2023-04-12T08:06:11;8.50;99.90
11304;DHT22;5707;49.588;12.148;2023-04-12T08:08:37;8.50;99.90
11304;DHT22;5707;49.588;12.148;2023-04-12T08:11:02;8.60;99.90
11304;DHT22;5707;49.588;12.148;2023-04-12T08:13:30;8.70;99.90
11304;DHT22;5707;49.588;12.148;2023-04-12T08:15:56;8.90;99.90
11304;DHT22;5707;49.588;12.148;2023-04-12T08:18:22;9.10;99.90
11304;DHT22;5707;49.588;12.148;2023-04-12T08:20:47;9.10;99.90
11304;DHT22;5707;49.588;12.148;2023-04-12T08:23:13;9.10;99.90
11304;DHT22;5707;49.588;12.148;2023-04-12T08:25:40;9.10;99.90
11304;DHT22;5707;49.588;12.148;2023-04-12T08:28:06;9.20;99.90
11304;DHT22;5707;49.588;12.148;2023-04-12T08:30:33;9.30;99.90
11304;DHT22;5707;49.588;12.148;2023-04-12T08:32:58;9.50;99.90
11304;DHT22;5707;49.588;12.148;2023-04-12T08:35:24;9.70;99.90
11304;DHT22;5707;49.588;12.148;2023-04-12T08:37:50;10.00;99.90
11304;DHT22;5707;49.588;12.148;2023-04-12T08:40:15;10.20;99.90
11304;DHT22;5707;49.588;12.148;2023-04-12T08:42:42;10.40;99.90
11304;DHT22;5707;49.588;12.148;2023-04-12T08:45:09;10.50;99.90
11304;DHT22;5707;49.588;12.148;2023-04-12T08:47:43;10.60;99.90
11304;DHT22;5707;49.588;12.148;2023-04-12T08:50:10;10.70;99.90
11304;DHT22;5707;49.588;12.148;2023-04-12T08:52:38;10.80;99.90
11304;DHT22;5707;49.588;12.148;2023-04-12T08:55:08;11.10;99.90
11304;DHT22;5707;49.588;12.148;2023-04-12T08:57:35;11.30;99.90
11304;DHT22;5707;49.588;12.148;2023-04-12T09:00:02;11.60;99.90
11304;DHT22;5707;49.588;12.148;2023-04-12T09:02:28;11.80;99.90
11304;DHT22;5707;49.588;12.148;2023-04-12T09:04:54;11.80;99.90
11304;DHT22;5707;49.588;12.148;2023-04-12T09:07:21;11.90;99.90
11304;DHT22;5707;49.588;12.148;2023-04-12T09:09:55;12.00;99.90
11304;DHT22;5707;49.588;12.148;2023-04-12T09:12:21;12.40;99.90
11304;DHT22;5707;49.588;12.148;2023-04-12T09:17:29;12.60;99.90
11304;DHT22;5707;49.588;12.148;2023-04-12T09:19:56;12.20;99.90
11304;DHT22;5707;49.588;12.148;2023-04-12T09:22:35;11.70;99.90
11304;DHT22;5707;49.588;12.148;2023-04-12T09:25:01;11.60;99.90
11304;DHT22;5707;49.588;12.148;2023-04-12T09:27:27;11.60;99.90
11304;DHT22;5707;49.588;12.148;2023-04-12T09:30:08;11.30;99.90
11304;DHT22;5707;49.588;12.148;2023-04-12T09:32:34;11.00;99.90
11304;DHT22;5707;49.588;12.148;2023-04-12T09:35:00;10.90;99.90
11304;DHT22;5707;49.588;12.148;2023-04-12T09:37:26;10.70;99.90
11304;DHT22;5707;49.588;12.148;2023-04-12T09:40:03;10.60;99.90
11304;DHT22;5707;49.588;12.148;2023-04-12T09:42:30;10.60;99.90
11304;DHT22;5707;49.588;12.148;2023-04-12T09:44:57;10.40;99.90
11304;DHT22;5707;49.588;12.148;2023-04-12T09:47:36;10.30;99.90
11304;DHT22;5707;49.588;12.148;2023-04-12T09:50:03;10.30;99.90
11304;DHT22;5707;49.588;12.148;2023-04-12T09:52:35;10.20;99.90
11304;DHT22;5707;49.588;12.148;2023-04-12T09:55:02;10.00;99.90
11304;DHT22;5707;49.588;12.148;2023-04-12T09:57:35;9.80;99.90
11304;DHT22;5707;49.588;12.148;2023-04-12T10:00:03;9.80;99.90
11304;DHT22;5707;49.588;12.148;2023-04-12T10:02:29;9.70;99.90
11304;DHT22;5707;49.588;12.148;2023-04-12T10:04:56;9.70;99.90
11304;DHT22;5707;49.588;12.148;2023-04-12T10:07:22;9.90;99.90
11304;DHT22;5707;49.588;12.148;2023-04-12T10:09:47;10.20;99.90
11304;DHT22;5707;49.588;12.148;2023-04-12T10:12:13;10.30;99.90
11304;DHT22;5707;49.588;12.148;2023-04-12T10:14:41;10.50;99.90
11304;DHT22;5707;49.588;12.148;2023-04-12T10:17:07;10.60;99.90
11304;DHT22;5707;49.588;12.148;2023-04-12T10:19:34;10.50;99.90
11304;DHT22;5707;49.588;12.148;2023-04-12T10:22:01;10.40;99.90
11304;DHT22;5707;49.588;12.148;2023-04-12T10:24:27;10.50;99.90
11304;DHT22;5707;49.588;12.148;2023-04-12T10:26:56;10.50;99.90
11304;DHT22;5707;49.588;12.148;2023-04-12T10:29:35;10.60;99.90
11304;DHT22;5707;49.588;12.148;2023-04-12T10:32:21;10.60;99.90
11304;DHT22;5707;49.588;12.148;2023-04-12T10:34:52;10.80;99.90
11304;DHT22;5707;49.588;12.148;2023-04-12T10:37:17;10.80;99.90
11304;DHT22;5707;49.588;12.148;2023-04-12T10:39:50;10.90;99.90
11304;DHT22;5707;49.588;12.148;2023-04-12T10:42:21;11.00;99.90
11304;DHT22;5707;49.588;12.148;2023-04-12T10:44:48;11.10;99.90
11304;DHT22;5707;49.588;12.148;2023-04-12T10:47:14;11.20;99.90
11304;DHT22;5707;49.588;12.148;2023-04-12T10:50:21;11.20;99.90
11304;DHT22;5707;49.588;12.148;2023-04-12T10:55:40;11.30;99.90
11304;DHT22;5707;49.588;12.148;2023-04-12T10:58:10;11.40;99.90
11304;DHT22;5707;49.588;12.148;2023-04-12T11:03:21;11.80;99.90
11304;DHT22;5707;49.588;12.148;2023-04-12T11:06:00;12.00;99.90
11304;DHT22;5707;49.588;12.148;2023-04-12T11:08:28;12.20;99.90
11304;DHT22;5707;49.588;12.148;2023-04-12T11:11:02;12.00;99.90
11304;DHT22;5707;49.588;12.148;2023-04-12T11:13:32;11.80;99.90
11304;DHT22;5707;49.588;12.148;2023-04-12T11:16:01;11.60;99.90
11304;DHT22;5707;49.588;12.148;2023-04-12T11:18:27;11.50;99.90
11304;DHT22;5707;49.588;12.148;2023-04-12T11:20:53;11.70;99.90
11304;DHT22;5707;49.588;12.148;2023-04-12T11:23:19;12.10;99.90
11304;DHT22;5707;49.588;12.148;2023-04-12T11:25:54;12.60;99.90
11304;DHT22;5707;49.588;12.148;2023-04-12T11:28:20;13.40;99.90
11304;DHT22;5707;49.588;12.148;2023-04-12T11:30:56;13.70;99.90
11304;DHT22;5707;49.588;12.148;2023-04-12T11:33:36;13.90;99.90
11304;DHT22;5707;49.588;12.148;2023-04-12T11:36:06;13.90;99.90
11304;DHT22;5707;49.588;12.148;2023-04-12T11:38:34;13.90;99.90
11304;DHT22;5707;49.588;12.148;2023-04-12T11:41:00;13.90;99.90
11304;DHT22;5707;49.588;12.148;2023-04-12T11:43:26;13.90;99.90
11304;DHT22;5707;49.588;12.148;2023-04-12T11:45:56;13.60;99.90
11304;DHT22;5707;49.588;12.148;2023-04-12T11:48:23;13.10;99.90
11304;DHT22;5707;49.588;12.148;2023-04-12T11:50:48;13.00;99.90
11304;DHT22;5707;49.588;12.148;2023-04-12T11:53:14;13.20;99.90
11304;DHT22;5707;49.588;12.148;2023-04-12T11:55:48;13.30;99.90
11304;DHT22;5707;49.588;12.148;2023-04-12T11:58:14;13.60;99.90
11304;DHT22;5707;49.588;12.148;2023-04-12T12:00:43;13.50;99.90
11304;DHT22;5707;49.588;12.148;2023-04-12T12:03:09;13.30;99.90
11304;DHT22;5707;49.588;12.148;2023-04-12T12:05:40;13.30;99.90
11304;DHT22;5707;49.588;12.148;2023-04-12T12:08:07;13.30;99.90
11304;DHT22;5707;49.588;12.148;2023-04-12T12:10:36;13.20;99.90
11304;DHT22;5707;49.588;12.148;2023-04-12T12:13:02;13.00;99.90
11304;DHT22;5707;49.588;12.148;2023-04-12T12:15:33;12.60;99.90
11304;DHT22;5707;49.588;12.148;2023-04-12T12:17:59;12.30;99.90
11304;DHT22;5707;49.588;12.148;2023-04-12T12:20:26;12.00;99.90
11304;DHT22;5707;49.588;12.148;2023-04-12T12:22:52;12.00;99.90
11304;DHT22;5707;49.588;12.148;2023-04-12T12:25:18;12.40;99.90
11304;DHT22;5707;49.588;12.148;2023-04-12T12:27:44;12.50;99.90
11304;DHT22;5707;49.588;12.148;2023-04-12T12:30:16;12.70;99.90
11304;DHT22;5707;49.588;12.148;2023-04-12T12:32:42;12.90;99.90
11304;DHT22;5707;49.588;12.148;2023-04-12T12:35:09;13.00;99.90
11304;DHT22;5707;49.588;12.148;2023-04-12T12:37:35;13.20;99.90
11304;DHT22;5707;49.588;12.148;2023-04-12T12:40:11;13.30;99.90
11304;DHT22;5707;49.588;12.148;2023-04-12T12:45:10;13.80;99.90
11304;DHT22;5707;49.588;12.148;2023-04-12T12:47:45;14.70;99.90
11304;DHT22;5707;49.588;12.148;2023-04-12T12:50:12;15.30;99.90
11304;DHT22;5707;49.588;12.148;2023-04-12T12:52:38;15.50;99.90
11304;DHT22;5707;49.588;12.148;2023-04-12T12:55:04;15.30;99.90
11304;DHT22;5707;49.588;12.148;2023-04-12T12:57:30;14.90;99.90
11304;DHT22;5707;49.588;12.148;2023-04-12T12:59:56;14.30;99.90
11304;DHT22;5707;49.588;12.148;2023-04-12T13:02:21;13.90;99.90
11304;DHT22;5707;49.588;12.148;2023-04-12T13:04:47;13.60;99.90
11304;DHT22;5707;49.588;12.148;2023-04-12T13:07:13;13.10;99.90
11304;DHT22;5707;49.588;12.148;2023-04-12T13:09:38;12.60;99.90
11304;DHT22;5707;49.588;12.148;2023-04-12T13:12:04;12.10;99.90
11304;DHT22;5707;49.588;12.148;2023-04-12T13:14:29;11.60;99.90
11304;DHT22;5707;49.588;12.148;2023-04-12T13:16:55;11.40;99.90
11304;DHT22;5707;49.588;12.148;2023-04-12T13:19:21;11.30;99.90
11304;DHT22;5707;49.588;12.148;2023-04-12T13:21:46;11.20;99.90
11304;DHT22;5707;49.588;12.148;2023-04-12T13:24:12;11.10;99.90
11304;DHT22;5707;49.588;12.148;2023-04-12T13:26:37;11.00;99.90
11304;DHT22;5707;49.588;12.148;2023-04-12T13:29:03;11.00;99.90
11304;DHT22;5707;49.588;12.148;2023-04-12T13:31:28;11.10;99.90
11304;DHT22;5707;49.588;12.148;2023-04-12T13:33:54;11.10;99.90
11304;DHT22;5707;49.588;12.148;2023-04-12T13:36:20;11.10;99.90
11304;DHT22;5707;49.588;12.148;2023-04-12T13:38:45;11.10;99.90
11304;DHT22;5707;49.588;12.148;2023-04-12T13:41:12;11.30;99.90
11304;DHT22;5707;49.588;12.148;2023-04-12T13:43:37;11.40;99.90
11304;DHT22;5707;49.588;12.148;2023-04-12T13:46:03;11.50;99.90
11304;DHT22;5707;49.588;12.148;2023-04-12T13:48:28;11.30;99.90
11304;DHT22;5707;49.588;12.148;2023-04-12T13:50:54;11.10;99.90
11304;DHT22;5707;49.588;12.148;2023-04-12T13:53:20;10.90;99.90
11304;DHT22;5707;49.588;12.148;2023-04-12T13:55:46;10.90;99.90
11304;DHT22;5707;49.588;12.148;2023-04-12T13:58:14;10.80;99.90
11304;DHT22;5707;49.588;12.148;2023-04-12T14:00:40;10.70;99.90
11304;DHT22;5707;49.588;12.148;2023-04-12T14:03:06;10.70;99.90
11304;DHT22;5707;49.588;12.148;2023-04-12T14:05:32;10.90;99.90
11304;DHT22;5707;49.588;12.148;2023-04-12T14:07:58;11.10;99.90
11304;DHT22;5707;49.588;12.148;2023-04-12T14:10:23;11.50;99.90
11304;DHT22;5707;49.588;12.148;2023-04-12T14:12:49;11.90;99.90
11304;DHT22;5707;49.588;12.148;2023-04-12T14:15:14;11.90;99.90
11304;DHT22;5707;49.588;12.148;2023-04-12T14:17:40;11.90;99.90
11304;DHT22;5707;49.588;12.148;2023-04-12T14:20:07;11.60;99.90
11304;DHT22;5707;49.588;12.148;2023-04-12T14:22:36;11.30;99.90
11304;DHT22;5707;49.588;12.148;2023-04-12T14:25:02;11.10;99.90
11304;DHT22;5707;49.588;12.148;2023-04-12T14:27:28;11.10;99.90
11304;DHT22;5707;49.588;12.148;2023-04-12T14:29:53;11.00;99.90
11304;DHT22;5707;49.588;12.148;2023-04-12T14:32:19;10.80;99.90
11304;DHT22;5707;49.588;12.148;2023-04-12T14:34:45;10.80;99.90
11304;DHT22;5707;49.588;12.148;2023-04-12T14:37:11;10.70;99.90
11304;DHT22;5707;49.588;12.148;2023-04-12T14:39:36;10.60;99.90
11304;DHT22;5707;49.588;12.148;2023-04-12T14:42:02;10.60;99.90
11304;DHT22;5707;49.588;12.148;2023-04-12T14:44:28;10.70;99.90
11304;DHT22;5707;49.588;12.148;2023-04-12T14:46:53;10.80;99.90
11304;DHT22;5707;49.588;12.148;2023-04-12T14:49:19;10.80;99.90
11304;DHT22;5707;49.588;12.148;2023-04-12T14:51:45;10.80;99.90
11304;DHT22;5707;49.588;12.148;2023-04-12T14:54:11;11.00;99.90
11304;DHT22;5707;49.588;12.148;2023-04-12T14:56:36;11.10;99.90
11304;DHT22;5707;49.588;12.148;2023-04-12T14:59:02;11.00;99.90
11304;DHT22;5707;49.588;12.148;2023-04-12T15:01:27;10.90;99.90
11304;DHT22;5707;49.588;12.148;2023-04-12T15:03:53;10.70;99.90
11304;DHT22;5707;49.588;12.148;2023-04-12T15:06:21;10.70;99.90
11304;DHT22;5707;49.588;12.148;2023-04-12T15:08:49;11.00;99.90
11304;DHT22;5707;49.588;12.148;2023-04-12T15:11:18;11.60;99.90
11304;DHT22;5707;49.588;12.148;2023-04-12T15:13:46;12.00;99.90
11304;DHT22;5707;49.588;12.148;2023-04-12T15:16:13;12.30;99.90
11304;DHT22;5707;49.588;12.148;2023-04-12T15:18:40;12.40;99.90
11304;DHT22;5707;49.588;12.148;2023-04-12T15:21:07;12.20;99.90
11304;DHT22;5707;49.588;12.148;2023-04-12T15:23:34;12.10;99.90
11304;DHT22;5707;49.588;12.148;2023-04-12T15:26:01;12.10;99.90
11304;DHT22;5707;49.588;12.148;2023-04-12T15:28:27;11.90;99.90
11304;DHT22;5707;49.588;12.148;2023-04-12T15:30:53;11.90;99.90
11304;DHT22;5707;49.588;12.148;2023-04-12T15:33:18;11.80;99.90
11304;DHT22;5707;49.588;12.148;2023-04-12T15:35:45;11.90;99.90
11304;DHT22;5707;49.588;12.148;2023-04-12T15:38:11;11.80;99.90
11304;DHT22;5707;49.588;12.148;2023-04-12T15:40:36;11.70;99.90
11304;DHT22;5707;49.588;12.148;2023-04-12T15:43:02;11.70;99.90
11304;DHT22;5707;49.588;12.148;2023-04-12T15:45:28;11.70;99.90
11304;DHT22;5707;49.588;12.148;2023-04-12T15:47:53;11.60;99.90
11304;DHT22;5707;49.588;12.148;2023-04-12T15:50:20;11.50;99.90